Time;durP1;ratioP1;P1;durP2;ratioP2;P2;SDS_P1;SDS_P2;PMS_P1;PMS_P2;Temp;Humidity;BMP_temperature;BMP_pressure;BME280_temperature;BME280_humidity;BME280_pressure;Samples;Min_cycle;Max_cycle;Signal;HPM_P1;HPM_P2
2022/02/03 00:02:32;;;;;;;25.52;10.90;;;;;;;7.40;100.00;102116.78;5032053;28;20067;-71
2022/02/03 00:05:13;;;;;;;29.90;11.85;;;;;;;7.40;100.00;102111.47;5031303;28;20525;-71
2022/02/03 00:08:00;;;;;;;27.77;11.48;;;;;;;7.40;100.00;102116.78;5024230;28;20081;-71
2022/02/03 00:11:12;;;;;;;26.88;12.45;;;;;;;7.39;100.00;102117.66;5031490;28;20073;-71
2022/02/03 00:16:59;;;;;;;35.83;14.32;;;;;;;7.37;100.00;102115.03;5031670;28;20053;-72
2022/02/03 00:22:20;;;;;;;29.58;12.68;;;;;;;7.39;100.00;102112.34;5032116;28;20108;-77
2022/02/03 00:25:01;;;;;;;30.70;12.43;;;;;;;7.38;100.00;102118.56;5032362;28;20526;-77
2022/02/03 00:27:48;;;;;;;40.78;15.13;;;;;;;7.35;100.00;102105.28;5032597;28;20057;-77
2022/02/03 00:30:20;;;;;;;31.27;12.48;;;;;;;7.35;100.00;102105.28;5032265;28;20523;-77
2022/02/03 00:33:07;;;;;;;26.30;12.68;;;;;;;7.38;100.00;102106.16;5032676;28;20084;-77
2022/02/03 00:48:23;;;;;;;32.03;12.32;;;;;;;7.41;100.00;102090.25;5030577;28;20072;-70
2022/02/03 00:54:25;;;;;;;34.67;12.80;;;;;;;7.37;100.00;102092.88;5031016;28;20057;-71
2022/02/03 00:57:22;;;;;;;38.10;14.57;;;;;;;7.34;100.00;102088.47;5030671;28;20065;-71
2022/02/03 01:00:17;;;;;;;39.50;14.77;;;;;;;7.34;100.00;102085.81;5029975;28;20055;-71
2022/02/03 01:02:54;;;;;;;39.50;14.68;;;;;;;7.33;100.00;102086.69;5033757;28;20069;-70
2022/02/03 01:05:37;;;;;;;31.98;14.40;;;;;;;7.30;100.00;102076.06;5033470;28;20077;-70
2022/02/03 01:08:26;;;;;;;33.83;14.07;;;;;;;7.33;100.00;102086.69;5035814;28;20045;-72
2022/02/03 01:11:24;;;;;;;36.20;15.65;;;;;;;7.31;100.00;102093.75;5035287;28;20080;-70
2022/02/03 01:14:25;;;;;;;39.60;15.93;;;;;;;7.37;100.00;102083.16;5035727;28;20163;-76
2022/02/03 01:17:12;;;;;;;35.00;14.93;;;;;;;7.36;100.00;102084.03;5036097;28;20065;-76
2022/02/03 01:33:52;;;;;;;38.05;16.85;;;;;;;7.34;100.00;102051.28;5035175;28;20478;-76
2022/02/03 01:45:50;;;;;;;32.88;14.82;;;;;;;7.30;100.00;102044.19;5034594;28;20088;-70
2022/02/03 01:51:49;;;;;;;30.27;13.60;;;;;;;7.30;100.00;102038.88;5033422;28;20049;-71
2022/02/03 01:54:57;;;;;;;31.17;13.80;;;;;;;7.29;100.00;102045.09;5034459;28;20375;-71
2022/02/03 02:01:08;;;;;;;28.00;12.98;;;;;;;7.29;100.00;102030.03;5033906;28;20053;-71
2022/02/03 02:03:56;;;;;;;33.50;13.32;;;;;;;7.32;100.00;102025.59;5030831;28;20160;-76
2022/02/03 02:06:36;;;;;;;30.10;13.20;;;;;;;7.30;100.00;102025.59;5035141;28;20085;-76
2022/02/03 02:09:08;;;;;;;31.13;12.80;;;;;;;7.31;100.00;102023.84;5034850;28;20060;-76
2022/02/03 02:12:02;;;;;;;30.13;12.02;;;;;;;7.28;100.00;102043.31;5035075;28;20386;-76
2022/02/03 02:15:12;;;;;;;31.55;12.35;;;;;;;7.25;100.00;102033.59;5034344;28;20055;-76
2022/02/03 02:18:33;;;;;;;25.70;11.90;;;;;;;7.28;100.00;102035.34;5033937;28;20053;-71
2022/02/03 02:37:12;;;;;;;23.65;8.73;;;;;;;7.28;100.00;101984.91;5033908;28;20053;-70
2022/02/03 02:43:16;;;;;;;26.63;9.80;;;;;;;7.29;100.00;101970.75;5031259;28;20085;-76
2022/02/03 02:45:54;;;;;;;26.80;11.52;;;;;;;7.25;100.00;101955.69;5034532;28;20435;-76
2022/02/03 02:48:35;;;;;;;20.02;9.52;;;;;;;7.27;100.00;101953.91;5033995;28;20049;-76
2022/02/03 02:51:09;;;;;;;25.30;9.85;;;;;;;7.26;100.00;101952.16;5033995;28;20096;-77
2022/02/03 02:54:06;;;;;;;18.95;8.23;;;;;;;7.28;100.00;101950.38;5033572;28;20045;-76
2022/02/03 02:57:21;;;;;;;23.35;8.30;;;;;;;7.24;100.00;101941.53;5033585;28;20056;-76
2022/02/03 03:03:16;;;;;;;23.38;7.85;;;;;;;7.23;100.00;101929.13;5011790;28;20045;-76
2022/02/03 03:32:39;;;;;;;17.02;6.22;;;;;;;7.27;100.00;101882.22;5032383;28;20053;-71
2022/02/03 03:41:25;;;;;;;23.75;7.78;;;;;;;7.30;100.00;101863.66;5032896;28;20049;-72
2022/02/03 03:44:14;;;;;;;14.88;6.88;;;;;;;7.29;100.00;101860.13;5032446;28;20117;-72
2022/02/03 03:47:19;;;;;;;18.00;6.95;;;;;;;7.25;100.00;101855.72;5030783;28;20049;-72
2022/02/03 03:53:41;;;;;;;19.13;7.60;;;;;;;7.22;100.00;101862.78;5032220;28;20060;-72
2022/02/03 03:56:38;;;;;;;16.67;7.13;;;;;;;7.22;100.00;101870.72;5032508;28;20108;-70
2022/02/03 05:04:32;;;;;;;16.65;6.38;;;;;;;6.98;100.00;101814.19;4942612;29;20107;-76
2022/02/03 05:07:36;;;;;;;13.90;5.85;;;;;;;6.89;100.00;101800.91;4965468;28;20468;-76
2022/02/03 05:10:30;;;;;;;13.60;6.20;;;;;;;6.88;100.00;101786.75;5031934;28;20174;-77
2022/02/03 05:13:29;;;;;;;10.95;4.80;;;;;;;6.87;100.00;101779.69;5032231;28;20318;-75
2022/02/03 05:16:33;;;;;;;14.05;5.45;;;;;;;6.89;100.00;101777.91;5031658;28;20095;-75
2022/02/03 05:19:38;;;;;;;12.82;4.90;;;;;;;6.88;100.00;101792.06;5032334;28;20080;-75
2022/02/03 05:26:58;;;;;;;14.55;4.45;;;;;;;6.90;100.00;101762.88;5170986;27;20372;-70
2022/02/03 05:33:48;;;;;;;11.10;4.78;;;;;;;6.90;100.00;101752.28;5121444;27;20051;-70
2022/02/03 05:43:38;;;;;;;17.45;4.95;;;;;;;6.94;100.00;101750.50;5123053;27;20047;-71
2022/02/03 06:08:21;;;;;;;11.85;5.50;;;;;;;6.96;100.00;101716.88;5109981;27;20058;-71
2022/02/03 06:17:50;;;;;;;11.15;5.00;;;;;;;6.97;100.00;101711.56;5120568;27;20462;-71
2022/02/03 06:27:24;;;;;;;20.48;5.65;;;;;;;6.96;100.00;101708.91;5120084;27;20053;-74
2022/02/03 06:28:12;;;;;;;12.73;4.57;;;;;;;6.92;100.00;101698.31;5122364;27;20053;-71
2022/02/03 06:38:16;;;;;;;12.18;5.50;;;;;;;6.86;100.00;101679.75;5108933;27;20399;-73
2022/02/03 06:44:36;;;;;;;12.30;5.43;;;;;;;6.90;100.00;101662.94;5104785;27;20056;-73
2022/02/03 07:00:18;;;;;;;13.93;4.73;;;;;;;6.82;100.00;101656.78;5111161;27;20062;-71
2022/02/03 07:03:54;;;;;;;15.70;4.95;;;;;;;6.78;100.00;101676.25;5109742;27;20058;-71
2022/02/03 07:06:37;;;;;;;17.88;6.43;;;;;;;6.76;100.00;101671.81;5056193;27;20054;-72
2022/02/03 07:09:29;;;;;;;13.82;6.63;;;;;;;6.73;100.00;101673.59;5107015;27;20112;-72
2022/02/03 07:15:31;;;;;;;15.70;5.70;;;;;;;6.71;100.00;101659.47;5106715;27;20473;-72
2022/02/03 07:18:32;;;;;;;18.50;7.28;;;;;;;6.70;100.00;101665.66;5108131;27;20089;-71
2022/02/03 07:21:34;;;;;;;17.30;6.55;;;;;;;6.69;100.00;101637.38;5107899;27;20074;-72
2022/02/03 07:31:22;;;;;;;19.77;7.93;;;;;;;6.76;100.00;101643.53;5068125;27;20051;-73
2022/02/03 07:43:11;;;;;;;15.85;8.73;;;;;;;6.68;100.00;101662.13;5107421;27;20055;-73
2022/02/03 07:46:21;;;;;;;21.75;9.85;;;;;;;6.65;100.00;101645.34;5078304;27;20069;-74
2022/02/03 07:59:22;;;;;;;18.00;9.10;;;;;;;6.54;100.00;101643.59;5107061;27;20142;-71
2022/02/03 08:02:16;;;;;;;16.42;9.43;;;;;;;6.44;100.00;101641.84;5095769;27;20055;-75
2022/02/03 08:05:22;;;;;;;17.63;9.68;;;;;;;6.38;100.00;101641.00;5110875;27;20477;-73
2022/02/03 08:08:20;;;;;;;18.70;8.52;;;;;;;6.29;100.00;101640.13;5086364;27;20059;-72
2022/02/03 08:11:19;;;;;;;24.42;10.68;;;;;;;6.26;100.00;101641.88;5105886;27;20227;-71
2022/02/03 08:13:55;;;;;;;24.67;10.85;;;;;;;6.22;100.00;101643.66;5106698;27;20262;-72
2022/02/03 08:16:33;;;;;;;22.40;10.68;;;;;;;6.28;100.00;101643.66;5105120;27;20069;-71
2022/02/03 08:19:06;;;;;;;;;;;;;;;6.22;100.00;101630.41;5107028;27;20400;-69
2022/02/03 08:21:56;;;;;;;25.20;12.20;;;;;;;6.20;100.00;101636.59;5109054;27;19934;-71
2022/02/03 08:24:49;;;;;;;25.08;11.38;;;;;;;6.19;100.00;101626.88;5108371;27;20098;-71
2022/02/03 08:30:59;;;;;;;21.95;10.35;;;;;;;6.14;100.00;101608.34;5095354;27;20065;-70
2022/02/03 08:33:32;;;;;;;29.75;13.10;;;;;;;6.12;100.00;101594.22;5107952;27;20051;-70
2022/02/03 08:36:07;;;;;;;29.17;12.70;;;;;;;6.10;100.00;101596.00;5105609;27;20248;-68
2022/02/03 08:39:07;;;;;;;34.17;14.70;;;;;;;6.06;100.00;101599.50;5087208;27;20043;-68
2022/02/03 08:42:21;;;;;;;26.90;11.27;;;;;;;6.07;100.00;101602.16;5107641;27;20070;-67
2022/02/03 08:44:59;;;;;;;31.08;12.30;;;;;;;6.09;100.00;101599.50;5107866;27;20043;-69
2022/02/03 08:47:27;;;;;;;29.48;12.65;;;;;;;6.11;100.00;101597.72;5105697;27;20571;-68
2022/02/03 08:50:19;;;;;;;29.38;13.65;;;;;;;6.09;100.00;101588.91;5108886;27;20058;-69
2022/02/03 08:52:59;;;;;;;31.08;14.07;;;;;;;6.08;100.00;101590.69;5106476;27;20051;-68
2022/02/03 08:55:38;;;;;;;31.52;13.52;;;;;;;6.04;100.00;101590.69;5088308;27;20070;-68
2022/02/03 09:38:28;;;;;;;29.05;12.30;;;;;;;6.11;100.00;101603.03;5106558;27;20492;-70
2022/02/03 09:57:53;;;;;;;36.75;11.10;;;;;;;6.06;100.00;101589.81;5088398;28;20043;-71
2022/02/03 10:00:45;;;;;;;;;;;;;;;6.09;100.00;101583.63;5103542;27;20168;-72
2022/02/03 10:03:19;;;;;;;23.08;11.30;;;;;;;6.10;100.00;101577.44;5105661;27;19928;-71
2022/02/03 10:06:01;;;;;;;25.35;10.48;;;;;;;6.24;100.00;101575.63;5088134;28;20503;-71
2022/02/03 10:08:33;;;;;;;22.20;10.10;;;;;;;6.30;100.00;101578.28;5108090;27;20055;-72
2022/02/03 10:11:17;;;;;;;16.90;9.05;;;;;;;6.26;100.00;101572.97;5107021;27;20130;-72
2022/02/03 10:13:49;;;;;;;32.20;9.73;;;;;;;6.27;100.00;101570.31;5113223;27;20542;-72
2022/02/03 10:16:20;;;;;;;18.15;8.50;;;;;;;6.31;100.00;101572.06;5090826;27;20253;-73
2022/02/03 10:19:04;;;;;;;17.77;9.95;;;;;;;6.31;100.00;101576.50;5091395;27;20889;-72
2022/02/03 10:21:36;;;;;;;20.30;10.95;;;;;;;6.34;100.00;101576.50;5110713;27;20047;-73
2022/02/03 10:24:10;;;;;;;18.92;8.98;;;;;;;6.35;100.00;101580.88;5109042;27;20048;-70
2022/02/03 10:26:45;;;;;;;19.25;10.23;;;;;;;6.39;100.00;101568.53;5077372;27;20536;-71
2022/02/03 10:29:21;;;;;;;21.65;8.77;;;;;;;6.37;100.00;101571.19;5110886;27;20120;-73
2022/02/03 10:31:54;;;;;;;18.33;10.13;;;;;;;6.34;100.00;101561.47;5108467;27;20115;-72
2022/02/03 10:34:36;;;;;;;16.60;9.07;;;;;;;6.45;100.00;101552.59;5108521;27;20689;-71
2022/02/03 10:37:22;;;;;;;19.15;9.80;;;;;;;6.39;100.00;101566.75;5091331;27;20076;-70
2022/02/03 10:40:42;;;;;;;20.95;9.27;;;;;;;6.37;100.00;101560.59;5110397;27;20082;-70
2022/02/03 10:50:05;;;;;;;15.02;9.10;;;;;;;6.30;100.00;101549.13;5043524;28;20056;-71
2022/02/03 11:04:05;;;;;;;28.08;11.45;;;;;;;6.40;100.00;101527.88;5023710;28;20077;-76
2022/02/03 11:06:40;;;;;;;21.85;12.52;;;;;;;6.53;100.00;101524.28;5025810;28;20671;-70
2022/02/03 11:09:17;;;;;;;24.33;10.95;;;;;;;6.51;100.00;101531.38;5025669;28;20084;-69
2022/02/03 11:11:52;;;;;;;27.95;13.30;;;;;;;6.52;100.00;101517.19;5028279;28;20091;-70
2022/02/03 11:14:22;;;;;;;30.77;12.57;;;;;;;6.53;100.00;101508.38;5023145;28;20084;-75
2022/02/03 11:16:52;;;;;;;27.58;11.88;;;;;;;6.64;100.00;101514.50;5025287;28;20151;-69
2022/02/03 11:19:24;;;;;;;30.23;12.98;;;;;;;6.68;100.00;101513.59;5026168;28;20390;-74
2022/02/03 11:22:03;;;;;;;33.00;12.70;;;;;;;6.72;100.00;101507.41;5024477;28;20095;-77
2022/02/03 11:24:34;;;;;;;23.52;12.45;;;;;;;6.64;100.00;101493.31;5025705;28;20145;-75
2022/02/03 11:27:23;;;;;;;26.98;11.88;;;;;;;6.67;100.00;101497.69;5027935;28;20168;-69
2022/02/03 11:51:36;;;;;;;27.88;13.55;;;;;;;6.52;100.00;101482.72;5026579;28;20148;-75
2022/02/03 11:54:43;;;;;;;31.35;13.60;;;;;;;6.46;100.00;101473.03;5025982;28;20057;-75
2022/02/03 11:57:42;;;;;;;26.08;12.32;;;;;;;6.40;100.00;101477.50;5026468;28;20059;-76
2022/02/03 12:21:35;;;;;;;24.25;13.05;;;;;;;6.38;100.00;101466.91;5149186;27;20137;-71
2022/02/03 12:24:34;;;;;;;25.15;13.82;;;;;;;6.39;100.00;101463.38;5171287;27;20114;-71
2022/02/03 12:27:25;;;;;;;23.73;13.05;;;;;;;6.35;100.00;101457.22;5169681;27;20284;-72
2022/02/03 12:30:05;;;;;;;25.38;12.55;;;;;;;6.30;100.00;101453.69;5169820;27;20058;-72
2022/02/03 12:38:47;;;;;;;27.98;13.73;;;;;;;6.43;100.00;101432.41;5150973;27;20559;-72
2022/02/03 12:41:19;;;;;;;24.70;13.13;;;;;;;6.49;100.00;101427.09;5150546;27;20486;-72
2022/02/03 12:43:58;;;;;;;25.15;12.95;;;;;;;6.58;100.00;101431.47;5171089;27;20050;-71
2022/02/03 12:46:27;;;;;;;26.52;13.32;;;;;;;6.53;100.00;101427.03;5167783;27;20408;-71
2022/02/03 12:48:57;;;;;;;23.55;11.05;;;;;;;6.56;100.00;101426.16;5169851;27;20054;-70
2022/02/03 12:51:27;;;;;;;24.75;11.27;;;;;;;6.63;100.00;101430.53;5167501;27;20054;-71
2022/02/03 12:53:58;;;;;;;26.70;13.02;;;;;;;6.56;100.00;101423.50;5169609;27;20050;-70
2022/02/03 12:56:28;;;;;;;26.27;11.48;;;;;;;6.54;100.00;101423.50;5170550;27;20489;-71
2022/02/03 12:59:01;;;;;;;29.30;12.18;;;;;;;6.59;100.00;101415.53;5166723;27;20107;-71
2022/02/03 13:01:32;;;;;;;32.05;13.82;;;;;;;6.56;100.00;101410.25;5172751;27;20094;-70
2022/02/03 13:04:08;;;;;;;25.95;12.57;;;;;;;6.58;100.00;101410.25;5148513;27;20053;-70
2022/02/03 13:06:46;;;;;;;30.08;13.80;;;;;;;6.56;100.00;101407.59;5152490;27;20077;-70
2022/02/03 13:09:15;;;;;;;30.02;13.68;;;;;;;6.54;100.00;101409.38;5166469;27;20129;-70
2022/02/03 13:11:50;;;;;;;28.95;13.80;;;;;;;6.60;100.00;101408.47;5153101;27;20057;-70
2022/02/03 13:14:27;;;;;;;28.00;13.45;;;;;;;6.52;100.00;101411.16;5151468;27;20050;-70
2022/02/03 13:17:02;;;;;;;27.17;12.55;;;;;;;6.52;100.00;101396.13;5166869;27;20051;-70
2022/02/03 13:19:57;;;;;;;25.77;12.13;;;;;;;6.56;100.00;101404.09;5170400;27;20042;-75
2022/02/03 13:22:33;;;;;;;24.67;12.10;;;;;;;6.56;100.00;101399.66;5169968;27;20224;-76
2022/02/03 13:27:54;;;;;;;28.73;11.10;;;;;;;6.58;100.00;101391.69;5160114;27;20069;-74
2022/02/03 13:30:44;;;;;;;26.27;11.52;;;;;;;6.54;100.00;101391.69;5152085;27;20091;-76
2022/02/03 13:33:14;;;;;;;28.90;11.38;;;;;;;6.54;100.00;101380.22;5158656;27;20486;-75
2022/02/03 13:35:52;;;;;;;20.80;10.70;;;;;;;6.56;100.00;101378.44;5155561;27;20137;-70
2022/02/03 13:38:37;;;;;;;24.40;11.68;;;;;;;6.61;100.00;101381.94;5151430;27;20101;-75
2022/02/03 13:41:19;;;;;;;21.90;11.02;;;;;;;6.61;100.00;101379.28;5158742;27;20106;-70
2022/02/03 13:43:48;;;;;;;24.80;12.13;;;;;;;6.57;100.00;101377.53;5134750;27;20086;-69
2022/02/03 13:46:27;;;;;;;20.23;11.13;;;;;;;6.54;100.00;101373.13;5152647;27;20054;-77
2022/02/03 13:48:57;;;;;;;23.60;11.63;;;;;;;6.64;100.00;101368.66;5155721;27;20141;-69
2022/02/03 13:51:37;;;;;;;22.10;10.02;;;;;;;6.62;100.00;101361.59;5154766;27;20363;-69
2022/02/03 14:10:27;;;;;;;22.02;10.85;;;;;;;6.66;100.00;101372.16;5152485;27;20042;-68
2022/02/03 14:18:13;;;;;;;23.30;11.13;;;;;;;6.73;100.00;101343.84;5112032;27;20047;-71
2022/02/03 14:21:07;;;;;;;22.17;10.40;;;;;;;6.81;100.00;101344.66;5155470;27;20367;-71
2022/02/03 14:29:14;;;;;;;20.70;9.68;;;;;;;6.95;100.00;101328.59;5155888;27;20079;-68
2022/02/03 14:31:43;;;;;;;22.33;9.30;;;;;;;7.03;100.00;101324.13;5134586;27;20058;-69
2022/02/03 14:34:21;;;;;;;25.15;10.63;;;;;;;7.08;100.00;101330.25;5153695;27;20047;-72
2022/02/03 14:37:00;;;;;;;20.83;10.38;;;;;;;7.11;100.00;101337.28;5151320;27;20133;-69
2022/02/03 14:39:44;;;;;;;21.65;11.02;;;;;;;7.12;100.00;101325.78;5149849;27;20091;-70
2022/02/03 14:42:22;;;;;;;20.58;9.55;;;;;;;7.13;100.00;101332.84;5138046;27;20054;-68
2022/02/03 14:44:52;;;;;;;23.27;10.50;;;;;;;7.15;100.00;101328.44;5151737;27;20115;-74
2022/02/03 14:47:22;;;;;;;21.60;10.65;;;;;;;7.13;100.00;101329.31;5154137;27;20119;-73
2022/02/03 14:49:55;;;;;;;18.58;9.80;;;;;;;7.14;100.00;101329.31;5151221;27;20074;-69
2022/02/03 14:52:55;;;;;;;15.95;8.77;;;;;;;7.10;100.00;101315.19;5128624;27;20276;-75
2022/02/03 14:58:50;;;;;;;19.95;9.35;;;;;;;7.10;100.00;101319.63;5151716;27;20070;-69
2022/02/03 15:01:38;;;;;;;18.02;8.07;;;;;;;7.03;100.00;101310.84;5151820;27;20050;-77
2022/02/03 15:04:10;;;;;;;16.95;8.65;;;;;;;7.09;100.00;101318.72;5156207;27;20054;-77
2022/02/03 15:06:41;;;;;;;19.25;8.75;;;;;;;7.07;100.00;101314.34;5153312;27;20225;-77
2022/02/03 15:09:46;;;;;;;18.80;8.20;;;;;;;7.03;100.00;101316.16;5152011;27;20042;-69
2022/02/03 15:12:41;;;;;;;20.30;8.32;;;;;;;7.04;100.00;101309.94;5156081;27;20496;-69
2022/02/03 15:15:19;;;;;;;19.65;8.00;;;;;;;6.98;100.00;101304.72;5138081;27;20043;-76
2022/02/03 15:21:22;;;;;;;19.63;9.55;;;;;;;7.01;100.00;101291.38;5154559;27;20093;-79
2022/02/03 15:24:07;;;;;;;17.42;8.98;;;;;;;7.02;100.00;101309.06;5123184;27;20050;-78
2022/02/03 15:27:02;;;;;;;17.27;9.02;;;;;;;7.06;100.00;101304.63;5153866;27;20077;-79
2022/02/03 15:29:36;;;;;;;19.10;8.93;;;;;;;7.06;100.00;101301.97;5154440;27;20094;-71
2022/02/03 15:32:09;;;;;;;17.55;9.00;;;;;;;6.97;100.00;101310.03;5151222;27;20056;-80
2022/02/03 15:35:07;;;;;;;18.38;9.20;;;;;;;7.01;100.00;101303.78;5155916;27;20067;-70
2022/02/03 15:41:19;;;;;;;18.60;8.32;;;;;;;6.98;100.00;101299.41;5077986;27;20403;-70
2022/02/03 15:43:53;;;;;;;17.60;8.98;;;;;;;6.94;100.00;101295.00;5066719;28;20133;-70
2022/02/03 15:46:42;;;;;;;18.52;8.48;;;;;;;6.97;100.00;101302.94;5065338;28;20128;-82
2022/02/03 15:49:33;;;;;;;15.75;9.05;;;;;;;6.99;100.00;101300.28;5066396;28;20407;-71
2022/02/03 16:01:12;;;;;;;14.20;9.18;;;;;;;6.86;100.00;101302.16;5024959;28;20508;-70
2022/02/03 16:04:21;;;;;;;14.73;8.00;;;;;;;6.86;100.00;101292.44;5063681;28;20139;-78
2022/02/03 16:18:49;;;;;;;17.27;8.18;;;;;;;6.88;100.00;101297.72;5063954;28;20338;-79
2022/02/03 16:21:25;;;;;;;14.00;8.02;;;;;;;6.88;100.00;101303.91;5065011;28;20079;-79
2022/02/03 16:31:57;;;;;;;15.88;7.82;;;;;;;6.83;100.00;101299.56;5053796;28;20905;-79
2022/02/03 16:51:34;;;;;;;12.52;6.93;;;;;;;6.71;100.00;101288.16;5054542;28;20048;-71
2022/02/03 16:54:08;;;;;;;;;;;;;;;6.70;100.00;101285.50;5051662;28;20044;-70
2022/02/03 16:56:48;;;;;;;15.65;6.32;;;;;;;6.75;100.00;101291.66;5052877;28;20419;-70
2022/02/03 16:59:49;;;;;;;15.85;6.43;;;;;;;6.71;100.00;101285.50;5055049;28;20147;-70
2022/02/03 17:02:55;;;;;;;12.18;5.75;;;;;;;6.66;100.00;101281.13;5056082;28;20114;-70
2022/02/03 17:05:30;;;;;;;14.80;6.75;;;;;;;6.66;100.00;101287.31;5055063;28;20112;-70
2022/02/03 17:08:08;;;;;;;20.15;7.05;;;;;;;6.61;100.00;101282.94;5068039;28;20135;-70
2022/02/03 17:13:53;;;;;;;14.27;7.03;;;;;;;6.61;100.00;101283.81;5051438;28;20044;-70
2022/02/03 17:16:26;;;;;;;15.00;7.03;;;;;;;6.59;100.00;101284.72;5051867;28;20053;-70
2022/02/03 17:19:11;;;;;;;17.88;6.68;;;;;;;6.57;100.00;101289.16;5051970;28;20051;-70
2022/02/03 17:21:44;;;;;;;16.25;7.60;;;;;;;6.58;100.00;101286.50;5054490;28;20044;-70
2022/02/03 17:24:23;;;;;;;14.57;8.57;;;;;;;6.61;100.00;101283.81;5054585;28;20128;-70
2022/02/03 17:27:02;;;;;;;15.30;7.18;;;;;;;6.62;100.00;101285.56;5057924;28;20053;-79
2022/02/03 17:29:40;;;;;;;15.43;7.60;;;;;;;6.59;100.00;101279.41;5056783;28;20049;-79
2022/02/03 17:32:17;;;;;;;14.73;7.85;;;;;;;6.57;100.00;101291.81;5053659;28;20323;-78
2022/02/03 18:09:16;;;;;;;15.32;7.93;;;;;;;6.42;100.00;101309.59;5073958;27;20430;-73
2022/02/03 18:12:01;;;;;;;14.73;6.25;;;;;;;6.40;100.00;101307.84;5074592;28;20349;-73
2022/02/03 18:17:37;;;;;;;13.32;7.47;;;;;;;6.40;100.00;101295.44;5049057;28;20143;-80
2022/02/03 18:31:38;;;;;;;16.30;8.55;;;;;;;6.46;100.00;101305.16;5046524;28;20043;-71
2022/02/03 18:34:36;;;;;;;17.15;8.00;;;;;;;6.43;100.00;101305.16;5073370;28;20101;-71
2022/02/03 18:37:18;;;;;;;17.85;8.55;;;;;;;6.45;100.00;101300.72;5077102;28;20048;-74
2022/02/03 18:50:55;;;;;;;22.25;9.07;;;;;;;6.50;100.00;101294.53;5074526;28;20275;-79
2022/02/03 18:53:31;;;;;;;19.80;9.00;;;;;;;6.50;100.00;101301.56;5070892;28;20050;-79
2022/02/03 18:56:07;;;;;;;18.33;9.88;;;;;;;6.46;100.00;101306.03;5074399;28;20424;-80
2022/02/03 18:58:46;;;;;;;19.92;9.38;;;;;;;6.46;100.00;101302.50;5073880;28;20242;-80
2022/02/03 19:10:27;;;;;;;19.60;8.55;;;;;;;6.49;100.00;101283.94;5075282;28;20086;-78
2022/02/03 19:16:17;;;;;;;22.45;9.02;;;;;;;6.47;100.00;101283.94;5073135;28;20048;-81
2022/02/03 19:24:57;;;;;;;20.73;8.68;;;;;;;6.49;100.00;101279.50;5058595;28;20072;-79
2022/02/03 20:03:57;;;;;;;16.20;6.57;;;;;;;6.41;100.00;101277.81;5058602;28;20152;-80
2022/02/03 20:06:44;;;;;;;20.13;6.60;;;;;;;6.43;100.00;101273.34;5061152;28;20051;-79
2022/02/03 20:09:21;;;;;;;13.18;6.28;;;;;;;6.44;100.00;101289.25;5062706;28;20098;-80
2022/02/03 20:11:50;;;;;;;12.00;5.47;;;;;;;6.45;100.00;101282.16;5064585;28;20172;-80
2022/02/03 20:14:19;;;;;;;13.85;6.22;;;;;;;6.48;100.00;101274.19;5060413;28;20673;-79
2022/02/03 20:16:48;;;;;;;14.27;6.30;;;;;;;6.49;100.00;101283.94;5060710;28;20140;-80
2022/02/03 20:19:18;;;;;;;11.40;5.53;;;;;;;6.51;100.00;101266.22;5054918;28;20137;-71
2022/02/03 20:21:48;;;;;;;17.80;6.40;;;;;;;6.52;100.00;101260.91;5075354;28;20094;-71
2022/02/03 20:24:16;;;;;;;17.77;7.57;;;;;;;6.54;100.00;101266.22;5057841;28;20053;-79
2022/02/03 20:26:44;;;;;;;16.15;7.47;;;;;;;6.56;100.00;101279.44;5064525;28;20633;-79
2022/02/03 20:29:24;;;;;;;12.23;6.28;;;;;;;6.54;100.00;101287.41;5054043;28;20466;-72
2022/02/03 20:32:06;;;;;;;16.63;6.82;;;;;;;6.50;100.00;101280.38;5060103;28;20676;-71
2022/02/03 20:34:39;;;;;;;19.02;7.72;;;;;;;6.48;100.00;101272.41;5050822;28;20052;-71
2022/02/03 20:37:13;;;;;;;19.45;7.55;;;;;;;6.50;100.00;101269.75;5057119;28;20139;-77
2022/02/03 20:39:45;;;;;;;17.65;7.13;;;;;;;6.52;100.00;101265.31;5055997;28;20048;-71
2022/02/03 20:42:26;;;;;;;20.50;8.60;;;;;;;6.51;100.00;101269.75;5057511;28;20052;-70
2022/02/03 20:45:00;;;;;;;21.42;7.72;;;;;;;6.51;100.00;101267.09;5058954;28;20106;-71
2022/02/03 20:47:31;;;;;;;19.17;7.60;;;;;;;6.52;100.00;101266.22;5060092;28;20056;-71
2022/02/03 20:50:13;;;;;;;22.75;8.43;;;;;;;6.52;100.00;101266.22;5053971;28;20049;-70
2022/02/03 20:53:11;;;;;;;24.45;8.95;;;;;;;6.55;100.00;101254.69;5057802;28;20059;-71
2022/02/03 20:56:03;;;;;;;21.17;8.10;;;;;;;6.54;100.00;101250.31;5043136;28;20164;-71
2022/02/03 20:58:38;;;;;;;25.90;10.20;;;;;;;6.58;100.00;101245.84;5059477;28;20487;-71
2022/02/03 21:01:20;;;;;;;25.02;10.43;;;;;;;6.58;100.00;101248.50;5055832;28;20324;-71
2022/02/03 21:04:05;;;;;;;23.30;9.50;;;;;;;6.59;100.00;101240.53;5060142;28;20048;-71
2022/02/03 21:06:44;;;;;;;24.75;10.32;;;;;;;6.57;100.00;101242.28;5059915;28;20113;-71
2022/02/03 21:09:21;;;;;;;19.75;9.65;;;;;;;6.56;100.00;101245.84;5058830;28;20131;-71
2022/02/03 21:15:11;;;;;;;18.92;8.07;;;;;;;6.57;100.00;101244.94;5068269;28;20105;-71
2022/02/03 21:17:50;;;;;;;21.77;7.97;;;;;;;6.58;100.00;101244.06;5059095;28;20060;-71
2022/02/03 21:23:29;;;;;;;21.23;9.00;;;;;;;6.59;100.00;101250.22;5059417;28;20053;-71
2022/02/03 21:26:17;;;;;;;18.92;8.30;;;;;;;6.62;100.00;101253.72;5057369;28;20048;-72
2022/02/03 21:28:55;;;;;;;20.48;9.20;;;;;;;6.62;100.00;101242.25;5057398;28;20534;-71
2022/02/03 21:31:32;;;;;;;20.42;7.80;;;;;;;6.61;100.00;101243.16;5057652;28;20303;-71
2022/02/03 21:34:15;;;;;;;18.25;8.57;;;;;;;6.63;100.00;101236.06;5043229;28;20132;-72
2022/02/03 21:37:01;;;;;;;23.43;8.50;;;;;;;6.60;100.00;101242.28;5039984;28;20598;-71
2022/02/03 21:39:33;;;;;;;19.17;8.60;;;;;;;6.63;100.00;101236.06;5057170;28;20434;-70
2022/02/03 21:42:52;;;;;;;19.90;7.28;;;;;;;6.65;100.00;101240.44;5058370;28;20446;-74
2022/02/03 21:45:44;;;;;;;19.02;8.13;;;;;;;6.67;100.00;101236.00;5058416;28;20056;-72
2022/02/03 21:48:13;;;;;;;18.65;7.13;;;;;;;6.67;100.00;101236.00;5058990;28;20570;-79
2022/02/03 21:50:44;;;;;;;19.88;7.03;;;;;;;6.69;100.00;101238.66;5059588;28;20058;-72
2022/02/03 21:53:22;;;;;;;15.65;7.03;;;;;;;6.72;100.00;101241.28;5056823;28;20505;-71
2022/02/03 21:55:58;;;;;;;15.52;6.85;;;;;;;6.74;100.00;101239.47;5058359;28;20057;-71
2022/02/03 21:58:28;;;;;;;14.82;6.95;;;;;;;6.72;100.00;101241.28;5058578;28;20389;-78
2022/02/03 22:00:59;;;;;;;14.95;6.70;;;;;;;6.77;100.00;101235.94;5060222;28;20045;-78
2022/02/03 22:03:29;;;;;;;19.63;7.55;;;;;;;6.79;100.00;101232.34;5054974;28;20056;-78
2022/02/03 22:05:58;;;;;;;18.45;6.20;;;;;;;6.83;100.00;101230.59;5059393;28;20052;-78
2022/02/03 22:08:26;;;;;;;18.35;6.93;;;;;;;6.84;100.00;101230.53;5060607;28;20171;-78
2022/02/03 22:11:00;;;;;;;16.73;6.35;;;;;;;6.81;100.00;101229.69;5057302;28;20063;-78
2022/02/03 22:13:35;;;;;;;17.20;7.32;;;;;;;6.79;100.00;101223.53;5059020;28;20147;-78
2022/02/03 22:16:14;;;;;;;18.27;7.53;;;;;;;6.85;100.00;101229.66;5061170;28;20098;-78
2022/02/03 22:18:42;;;;;;;24.60;8.18;;;;;;;6.89;100.00;101220.75;5059628;28;20125;-78
2022/02/03 22:21:18;;;;;;;16.65;7.10;;;;;;;6.83;100.00;101227.94;5058225;28;20055;-78
2022/02/03 22:23:56;;;;;;;18.80;7.70;;;;;;;6.76;100.00;101224.47;5058361;28;20078;-78
2022/02/03 22:38:30;;;;;;;20.65;8.63;;;;;;;6.82;100.00;101231.47;5058948;28;20068;-78
2022/02/03 22:43:50;;;;;;;18.92;8.77;;;;;;;6.76;100.00;101231.50;5025029;28;20109;-70
2022/02/03 22:49:14;;;;;;;18.60;7.82;;;;;;;6.81;100.00;101232.34;5058558;28;20056;-70
2022/02/03 22:51:46;;;;;;;15.30;6.90;;;;;;;6.85;100.00;101234.09;5058423;28;20044;-71
2022/02/03 22:54:17;;;;;;;22.20;8.23;;;;;;;6.84;100.00;101237.63;5058522;28;20086;-77
2022/02/03 22:56:45;;;;;;;22.13;9.80;;;;;;;6.87;100.00;101238.47;5062340;28;20057;-76